Aviation

Metar/Speci

station

VRMH

METAR VRMH 301800Z 28011KT 9999 FEW017TCU BKN120 27/24 Q1012=

41 minutes ago

VRMM

METAR VRMM 301800Z 28016KT 9000 -RA SCT017TCU OVC100 27/24 Q1012 NOSIG=

41 minutes ago

VRMK

METAR VRMK 301800Z 27008KT 9999 FEW017TCU BKN260 28/24 Q1012=

31 minutes ago

VRMT

METAR VRMT 301800Z 27005KT 9999 FEW018TCU BKN270 27/25 Q1012=

41 minutes ago

VRMG

METAR VRMG 301800Z 24008KT 9999 FEW018TCU BKN260 28/24 Q1012 NOSIG=

43 minutes ago

Synop

station

43533

AAXX 30184 43533 11460 72711 10270 20243 30119 40121 69901 70286 8227/ 333 58009 82817 87362=

41 minutes ago

43555

AAXX 30184 43555 11459 82716 10270 20237 30121 40123 69901 76166 8322/ 333 58000 83817 88460=

41 minutes ago

43577

AAXX 30184 43577 12462 72708 10283 20242 30123 40125 60001 82232 333 59001 82817 87076=

33 minutes ago

43588

AAXX 30184 43588 12462 62705 10272 20247 30127 40128 60001 82232 333 58006 82818 86077=

41 minutes ago

43599

AAXX 30184 43599 12460 72508 10276 20237 30126 40128 60001 82232 333 58008 82818 86076=

43 minutes ago

Tafs

station

VRMH

VRMH 301100Z 3012/0118 25018KT 9000 SCT017TCU BKN110 TEMPO 3012/3018 25025G38KT 4000 TSRA SCT017CB=

7 hours ago

VRMM

VRMM 301100Z 3012/0118 27020KT 9000 SCT017TCU BKN110 TEMPO 3012/3018 27023G38KT 4000 TSRA SCT017CB=

7 hours ago

VRMK

VRMK 301100Z 3012/0112 27008KT 9999 FEW017TCU BKN120 TEMPO 3012/3018 5000 SHRA FEW017CB=

7 hours ago

VRMT

VRMT 301100Z 3012/0112 27010KT 9999 FEW018TCU BKN120 TEMPO 3012/3018 5000 SHRA FEW017CB=

7 hours ago

VRMG

VRMG 301100Z 3012/0118 25010KT 9999 FEW017TCU BKN120 TEMPO 3012/3018 5000 SHRA FEW017CB=

7 hours ago

Sigmet

Flight folders

No flight folder available at the moment.